Latest Weather Observations for Khancoban

IDN60801

Issued at 7:32 pm EST Friday 22 September 2017 (issued every 30 minutes, with the page automatically refreshed every 10 minutes)

About weather observations | Map of weather stations | Latest weather observations for NSW | Other Formats
Station Details ID: 072162 Name: KHANCOBAN AWS Lat: -36.23 Lon: 148.14 Height: 339.3 m
Data from the previous 72 hours. | See also: Recent months at Khancoban
Date/Time
EST
Temp
°C
App
Temp
°C
Dew
Point
°C
Rel
Hum
%
Delta-T
°C
Wind Press
QNH
hPa
Press
MSL
hPa
Rain since
9am
mm
Dir  Spd
km/h
Gust
km/h
Spd
kts
Gust
kts
22/07:30pm 13.4 12.4 8.7 73 2.4 NE 4 7 2 4 1010.9 1011.0 0.0
22/07:00pm 14.3 14.1 8.9 70 2.8 CALM 0 2 0 1 1010.7 1010.8 0.0
22/06:30pm 15.6 14.8 8.1 61 3.8 NNW 2 9 1 5 1010.3 1010.3 0.0
22/06:00pm 17.4 16.8 8.8 57 4.5 SW 2 6 1 3 1010.2 1010.2 0.0
22/05:30pm 18.1 17.5 10.5 61 4.1 WSW 4 9 2 5 1010.1 1010.1 0.0
22/05:00pm 20.9 20.2 10.1 50 5.9 WNW 4 7 2 4 1010.1 1010.1 0.0
22/04:30pm 24.1 21.2 4.5 28 9.9 W 9 11 5 6 1010.1 1010.1 0.0
22/04:00pm 24.6 22.2 5.4 29 9.9 WNW 7 11 4 6 1010.2 1010.2 0.0
22/03:30pm 24.6 21.9 5.4 29 9.9 WNW 9 13 5 7 1010.4 1010.4 0.0
22/03:00pm 24.2 21.4 5.1 29 9.8 WNW 9 15 5 8 1010.5 1010.5 0.0
22/02:30pm 24.0 21.9 5.8 31 9.4 WNW 6 9 3 5 1010.7 1010.8 0.0
22/02:00pm 23.4 21.6 7.1 35 8.6 W 6 9 3 5 1010.9 1011.0 0.0
22/01:30pm 22.4 20.4 7.0 37 8.1 SSE 7 11 4 6 1011.2 1011.3 0.0
22/01:00pm 21.3 19.3 7.2 40 7.4 W 7 9 4 5 1011.5 1011.6 0.0
22/12:30pm 20.4 18.3 5.6 38 7.5 S 6 9 3 5 1011.9 1012.0 0.0
22/12:00pm 19.0 18.5 9.5 54 5.1 WNW 2 7 1 4 1012.6 1012.6 0.0
22/11:30am 17.1 16.5 7.2 52 5.0 CALM 0 0 0 0 1013.2 1013.3 0.0
22/11:00am 16.1 15.1 7.3 56 4.5 WNW 2 7 1 4 1013.7 1013.8 0.0
22/10:30am 15.1 14.3 6.4 56 4.3 CALM 0 0 0 0 1013.9 1014.0 0.0
22/10:00am 14.3 13.3 5.7 56 4.2 CALM 0 0 0 0 1014.1 1014.2 0.0
22/09:30am 12.8 11.6 6.4 65 3.1 WNW 2 7 1 4 1014.3 1014.4 0.0
22/09:00am 10.7 9.2 6.6 76 2.0 NW 4 7 2 4 1014.5 1014.6 0.0
22/08:30am 9.8 9.0 6.3 79 1.7 CALM 0 0 0 0 1014.4 1014.5 0.0
22/08:00am 8.1 6.7 5.6 84 1.1 NNE 2 6 1 3 1014.6 1014.7 0.0
22/07:30am 6.5 5.5 5.8 95 0.3 CALM 0 0 0 0 1014.8 1014.9 0.0
22/07:00am 4.8 3.6 4.7 99 0.0 CALM 0 0 0 0 1014.7 1014.8 0.0
22/06:30am 4.3 3.0 4.2 99 0.0 CALM 0 0 0 0 1014.5 1014.6 0.0
22/06:00am 4.6 3.4 4.5 99 0.0 CALM 0 0 0 0 1014.2 1014.3 0.0
22/05:30am 5.0 2.7 4.6 97 0.2 NNE 6 7 3 4 1013.8 1013.9 0.0
22/05:00am 5.0 3.1 4.9 99 0.0 NNE 4 9 2 5 1013.6 1013.7 0.0
22/04:30am 5.7 3.6 5.6 99 0.0 NNE 6 7 3 4 1013.6 1013.7 0.0
22/04:00am 5.5 4.5 5.4 99 0.0 CALM 0 0 0 0 1013.6 1013.7 0.0
22/03:30am 5.5 3.3 5.4 99 0.0 WSW 6 7 3 4 1013.7 1013.8 0.0
22/03:00am 5.0 3.3 4.1 94 0.4 NE 2 6 1 3 1013.8 1013.9 0.0
22/02:30am 5.1 3.6 4.8 98 0.1 SSE 2 7 1 4 1014.0 1014.1 0.0
22/02:00am 5.2 2.4 5.1 99 0.0 N 9 13 5 7 1014.1 1014.2 0.0
22/01:30am 5.5 2.7 5.2 98 0.1 S 9 11 5 6 1014.1 1014.2 0.0
22/01:00am 6.9 5.3 6.3 96 0.3 NNE 4 7 2 4 1015.0 1015.1 0.0
22/12:30am 5.9 4.5 5.6 98 0.1 NW 2 7 1 4 1014.9 1015.0 0.0
22/12:00am 6.7 5.3 5.7 93 0.5 S 2 7 1 4 1014.4 1014.5 0.0
 
Date/Time
EST
Temp
°C
App
Temp
°C
Dew
Point
°C
Rel
Hum
%
Delta-T
°C
Wind Press
QNH
hPa
Press
MSL
hPa
Rain since
9am
mm
Dir  Spd
km/h
Gust
km/h
Spd
kts
Gust
kts
21/11:30pm 6.8 5.4 5.4 91 0.6 NNE 2 6 1 3 1014.5 1014.6 0.0
21/11:00pm 7.4 6.6 6.7 95 0.3 CALM 0 0 0 0 1015.0 1015.1 0.0
21/10:30pm 7.9 7.2 7.0 94 0.4 CALM 0 0 0 0 1015.3 1015.3 0.0
21/10:00pm 8.3 6.6 7.4 94 0.4 NNE 6 7 3 4 1015.2 1015.2 0.0
21/09:30pm 8.6 7.2 7.4 92 0.6 SSE 4 7 2 4 1015.0 1015.1 0.0
21/09:00pm 8.7 7.5 7.9 95 0.4 SSE 4 7 2 4 1014.9 1015.0 0.0
21/08:30pm 8.1 6.1 6.2 88 0.9 SSE 6 7 3 4 1014.7 1014.8 0.0
21/08:00pm 9.8 8.1 7.7 87 1.0 NNE 6 7 3 4 1014.9 1015.0 0.0
21/07:30pm 11.5 10.7 8.2 80 1.6 N 2 6 1 3 1014.7 1014.8 0.0
21/07:00pm 11.1 10.3 8.3 83 1.4 S 2 6 1 3 1014.5 1014.6 0.0
21/06:30pm 12.3 12.0 8.6 78 1.9 CALM 0 0 0 0 1014.1 1014.2 0.0
21/06:00pm 14.6 13.1 8.5 67 3.1 SSW 6 9 3 5 1013.7 1013.8 0.0
21/05:30pm 16.7 16.3 8.4 58 4.3 CALM 0 0 0 0 1013.2 1013.3 0.0
21/05:00pm 18.6 16.7 7.7 49 5.6 NW 7 9 4 5 1013.0 1013.0 0.0
21/04:30pm 19.6 17.8 7.0 44 6.5 NW 6 9 3 5 1013.0 1013.0 0.0
21/04:00pm 19.2 17.0 6.0 42 6.6 NNW 7 11 4 6 1013.0 1013.0 0.0
21/03:30pm 19.6 17.1 4.5 37 7.4 WNW 7 11 4 6 1013.2 1013.3 0.0
21/03:00pm 19.4 16.5 4.7 38 7.2 NW 9 13 5 7 1013.5 1013.6 0.0
21/02:30pm 19.1 16.3 2.9 34 7.7 NW 7 11 4 6 1013.8 1013.9 0.0
21/02:00pm 18.8 16.1 5.6 42 6.6 WNW 9 15 5 8 1014.2 1014.3 0.0
21/01:30pm 18.2 14.5 4.7 41 6.6 WNW 13 17 7 9 1014.5 1014.6 0.0
21/01:00pm 17.4 15.0 5.4 45 5.9 W 7 13 4 7 1015.0 1015.1 0.0
21/12:30pm 17.1 15.3 5.4 46 5.7 WNW 4 11 2 6 1015.7 1015.8 0.0
21/12:00pm 16.0 14.4 4.7 47 5.4 WNW 2 7 1 4 1016.4 1016.5 0.0
21/11:30am 14.6 12.3 5.9 56 4.2 W 7 11 4 6 1016.8 1016.9 0.0
21/11:00am 14.0 12.3 6.1 59 3.8 WNW 4 7 2 4 1017.0 1017.1 0.0
21/10:30am 12.3 10.6 5.9 65 3.1 NNW 4 7 2 4 1017.9 1018.0 0.0
21/10:00am 10.8 9.1 4.0 63 3.1 WNW 2 7 1 4 1018.2 1018.4 0.0
21/09:30am 9.5 8.5 5.5 76 1.9 CALM 0 0 0 0 1018.2 1018.4 0.0
21/09:00am 7.9 6.3 4.7 80 1.4 N 2 7 1 4 1018.7 1018.8 0.0
21/08:30am 6.2 5.1 5.0 92 0.5 CALM 0 0 0 0 1018.9 1019.0 0.0
21/08:00am 4.6 3.4 4.5 99 0.0 CALM 0 0 0 0 1019.0 1019.1 0.0
21/07:30am 2.8 1.3 2.8 100 0.0 CALM 0 0 0 0 1019.0 1019.1 0.0
21/07:00am 2.4 0.8 2.4 100 0.0 CALM 0 0 0 0 1018.9 1019.0 0.0
21/06:30am 2.2 0.6 2.2 100 0.0 CALM 0 0 0 0 1018.7 1018.8 0.0
21/06:00am 1.8 0.1 1.7 99 0.0 CALM 0 0 0 0 1018.4 1018.5 0.0
21/05:30am 2.3 0.7 2.3 100 0.0 CALM 0 0 0 0 1018.4 1018.5 0.0
21/05:00am 2.1 0.0 2.0 99 0.0 SE 2 6 1 3 1018.1 1018.3 0.0
21/04:30am 2.8 1.2 2.7 99 0.0 CALM 0 0 0 0 1018.1 1018.3 0.0
21/04:00am 3.2 0.6 3.1 99 0.0 NNE 6 7 3 4 1017.8 1017.9 0.0
21/03:30am 3.0 1.5 2.9 99 0.0 CALM 0 6 0 3 1017.8 1017.9 0.0
21/03:00am 2.9 1.0 2.8 99 0.0 NE 2 6 1 3 1018.1 1018.3 0.0
21/02:30am 3.8 2.4 3.7 99 0.0 CALM 0 0 0 0 1018.5 1018.6 0.0
21/02:00am 3.3 1.8 3.2 99 0.0 CALM 0 0 0 0 1018.7 1018.8 0.0
21/01:30am 3.1 1.2 3.0 99 0.0 N 2 6 1 3 1019.1 1019.2 0.0
21/01:00am 3.8 2.4 3.7 99 0.0 CALM 0 0 0 0 1019.2 1019.3 0.0
21/12:30am 4.3 3.0 3.9 97 0.2 CALM 0 6 0 3 1019.2 1019.3 0.0
21/12:00am 4.5 3.3 4.4 99 0.0 CALM 0 0 0 0 1019.4 1019.5 0.0
 
Date/Time
EST
Temp
°C
App
Temp
°C
Dew
Point
°C
Rel
Hum
%
Delta-T
°C
Wind Press
QNH
hPa
Press
MSL
hPa
Rain since
9am
mm
Dir  Spd
km/h
Gust
km/h
Spd
kts
Gust
kts
20/11:30pm 4.6 3.4 4.5 99 0.0 CALM 0 0 0 0 1019.4 1019.5 0.0
20/11:00pm 5.3 3.7 4.7 96 0.3 SE 2 7 1 4 1019.6 1019.7 0.0
20/10:30pm 5.0 3.7 4.1 94 0.4 CALM 0 0 0 0 1019.6 1019.7 0.0
20/10:00pm 5.6 4.0 4.6 93 0.4 NNE 2 7 1 4 1019.6 1019.7 0.0
20/09:30pm 6.4 5.4 5.4 93 0.5 CALM 0 0 0 0 1019.5 1019.6 0.0
20/09:00pm 6.4 5.3 5.2 92 0.5 CALM 0 0 0 0 1019.5 1019.6 0.0
20/08:30pm 7.5 6.6 6.0 90 0.7 CALM 0 0 0 0 1019.5 1019.6 0.0
20/08:00pm 8.0 7.1 6.0 87 0.9 CALM 0 6 0 3 1019.3 1019.4 0.0
20/07:30pm 8.0 6.6 5.5 84 1.1 NNE 2 6 1 3 1018.9 1019.0 0.0
20/07:00pm 8.1 7.0 5.2 82 1.3 CALM 0 0 0 0 1018.7 1018.8 0.0
20/06:30pm 10.0 9.1 6.2 77 1.8 CALM 0 0 0 0 1018.6 1018.7 0.0
20/06:00pm 11.1 9.5 6.5 73 2.2 W 4 7 2 4 1018.4 1018.5 0.0
20/05:30pm 13.0 11.5 6.6 65 3.1 WNW 4 7 2 4 1018.1 1018.3 0.0
20/05:00pm 15.6 13.9 4.0 46 5.5 WNW 2 6 1 3 1018.0 1018.2 0.0
20/04:30pm 16.3 14.0 3.0 41 6.2 WNW 4 7 2 4 1017.8 1017.9 0.0
20/04:00pm 16.0 12.9 3.4 43 5.9 W 9 11 5 6 1017.6 1017.7 0.0
20/03:30pm 15.9 13.4 4.9 48 5.3 WNW 7 13 4 7 1017.6 1017.7 0.0
20/03:00pm 16.0 12.8 5.0 48 5.3 NW 11 15 6 8 1017.6 1017.7 0.0
20/02:30pm 15.5 11.9 3.0 43 5.8 WNW 11 13 6 7 1018.2 1018.4 0.0
20/02:00pm 15.0 11.2 4.1 48 5.1 WNW 13 19 7 10 1018.5 1018.6 0.0
20/01:30pm 14.6 11.1 3.7 48 5.1 WNW 11 15 6 8 1018.8 1018.9 0.0
20/01:00pm 14.2 10.4 5.6 56 4.1 NW 15 20 8 11 1019.4 1019.5 0.0
20/12:30pm 13.7 10.0 4.6 54 4.3 WNW 13 17 7 9 1019.6 1019.7 0.0
20/12:00pm 13.1 10.2 4.8 57 3.9 WNW 9 15 5 8 1020.1 1020.2 0.0
20/11:30am 12.3 9.8 4.5 59 3.6 NNW 7 9 4 5 1021.0 1021.2 0.0
20/11:00am 11.1 8.8 4.8 65 2.9 N 6 11 3 6 1021.7 1021.8 0.0
20/10:30am 9.7 7.1 3.2 64 2.9 N 6 7 3 4 1022.0 1022.1 0.0
20/10:00am 7.9 6.1 3.6 74 1.9 WNW 2 6 1 3 1022.4 1022.5 0.0
20/09:30am 6.9 4.8 4.0 82 1.3 SW 4 7 2 4 1023.2 1023.4 0.0
20/09:00am 5.3 3.9 3.8 90 0.6 CALM 0 0 0 0 1023.7 1023.9 0.0
20/08:30am 4.1 2.6 3.2 94 0.4 CALM 0 0 0 0 1023.7 1023.9 0.0
20/08:00am 3.1 0.4 2.8 98 0.1 NNE 6 7 3 4 1023.6 1023.8 0.0
20/07:30am 2.3 0.7 2.2 99 0.0 CALM 0 6 0 3 1023.3 1023.5 0.0
20/07:00am 1.0 -2.0 0.9 99 0.0 NE 6 7 3 4 1023.2 1023.4 0.0
20/06:30am 0.4 -1.5 0.3 99 0.0 CALM 0 0 0 0 1022.7 1022.8 0.0
20/06:00am 0.8 -1.1 0.7 99 0.0 CALM 0 0 0 0 1022.6 1022.7 0.0
20/05:30am 0.7 -1.2 0.6 99 0.0 CALM 0 0 0 0 1022.3 1022.4 0.0
20/05:00am 1.0 -1.2 0.9 99 0.0 SSE 2 6 1 3 1021.8 1021.9 0.0
20/04:30am 0.8 -1.1 0.7 99 0.0 CALM 0 6 0 3 1021.2 1021.4 0.0
20/04:00am 1.5 -0.3 1.4 99 0.0 CALM 0 0 0 0 1021.3 1021.5 0.0
20/03:30am 1.0 -0.8 0.9 99 0.0 CALM 0 0 0 0 1021.3 1021.5 0.0
20/03:00am 1.8 -1.1 1.7 99 0.0 SSE 6 7 3 4 1021.5 1021.6 0.0
20/02:30am 1.7 -0.4 1.6 99 0.0 NE 2 6 1 3 1021.7 1021.8 0.0
20/02:00am 1.7 0.0 1.6 99 0.0 CALM 0 0 0 0 1021.8 1021.9 0.0
20/01:30am 2.0 0.3 1.9 99 0.0 CALM 0 0 0 0 1021.8 1021.9 0.0
20/01:00am 3.0 0.2 2.9 99 0.0 NNE 7 7 4 4 1021.8 1021.9 0.0
20/12:30am 2.2 0.5 1.9 98 0.1 CALM 0 0 0 0 1021.8 1021.9 0.0
20/12:00am 3.3 1.8 3.2 99 0.0 CALM 0 0 0 0 1021.8 1021.9 0.0
 
Date/Time
EST
Temp
°C
App
Temp
°C
Dew
Point
°C
Rel
Hum
%
Delta-T
°C
Wind Press
QNH
hPa
Press
MSL
hPa
Rain since
9am
mm
Dir  Spd
km/h
Gust
km/h
Spd
kts
Gust
kts
19/11:30pm 3.3 1.8 3.2 99 0.0 CALM 0 0 0 0 1021.7 1021.8 0.0
19/11:00pm 3.8 2.0 3.2 96 0.2 NE 2 6 1 3 1021.7 1021.8 0.0
19/10:30pm 4.3 2.4 3.0 91 0.5 NE 2 6 1 3 1021.8 1021.9 0.0
19/10:00pm 5.0 2.5 4.0 93 0.4 NE 6 7 3 4 1021.8 1021.9 0.0
19/09:30pm 5.8 4.0 3.5 85 1.0 SSE 2 7 1 4 1021.5 1021.6 0.0
19/09:00pm 6.4 3.9 3.7 83 1.2 E 6 9 3 5 1021.3 1021.5 0.0
19/08:30pm 7.7 5.6 3.7 76 1.8 NE 4 7 2 4 1021.1 1021.3 0.0
19/08:00pm 8.9 7.2 4.1 72 2.1 N 2 7 1 4 1020.9 1021.1 0.0

Other Formats:

Comma delimited format used in spreadsheet applications
http://www.bom.gov.au/fwo/IDN60801/IDN60801.94919.axf

JavaScript Object Notation format (JSON) in row-major order
http://www.bom.gov.au/fwo/IDN60801/IDN60801.94919.json